createdAt,value
2023-05-06T00:03:26.627Z,0
2023-05-06T00:14:05.197Z,0
2023-05-06T00:19:24.656Z,0
2023-05-06T00:30:02.881Z,0
2023-05-06T00:35:22.409Z,0
2023-05-06T00:46:00.790Z,0
2023-05-06T00:51:19.993Z,0
2023-05-06T00:56:39.611Z,0
2023-05-06T01:01:58.533Z,0
2023-05-06T01:07:18.170Z,0
2023-05-06T01:12:47.508Z,0
2023-05-06T01:17:56.690Z,0
2023-05-06T01:23:15.281Z,0
2023-05-06T01:28:34.075Z,0
2023-05-06T01:33:53.594Z,0
2023-05-06T01:44:32.525Z,0
2023-05-06T01:49:51.450Z,0
2023-05-06T01:55:10.542Z,0
2023-05-06T02:00:29.234Z,0
2023-05-06T02:05:48.625Z,0
2023-05-06T02:11:07.576Z,0
2023-05-06T02:16:27.248Z,0
2023-05-06T02:21:46.652Z,0
2023-05-06T02:27:06.223Z,0
2023-05-06T02:37:45.200Z,0
2023-05-06T02:43:04.514Z,0
2023-05-06T02:48:23.635Z,0
2023-05-06T02:53:42.919Z,0
2023-05-06T02:59:02.010Z,0
2023-05-06T03:04:20.906Z,0
2023-05-06T03:09:40.629Z,0
2023-05-06T03:20:19.677Z,0
2023-05-06T03:25:38.736Z,2
2023-05-06T03:30:58.442Z,7
2023-05-06T03:36:17.800Z,14
2023-05-06T03:41:37.512Z,24
2023-05-06T03:46:56.859Z,60
2023-05-06T03:52:16.277Z,95
2023-05-06T03:57:35.103Z,168
2023-05-06T04:08:13.639Z,550
2023-05-06T04:13:32.816Z,767
2023-05-06T04:18:52.454Z,986
2023-05-06T04:24:11.333Z,1342
2023-05-06T04:29:30.399Z,1674
2023-05-06T04:34:49.098Z,2007
2023-05-06T04:40:07.978Z,2154
2023-05-06T04:45:27.539Z,2722
2023-05-06T04:50:46.888Z,2290
2023-05-06T04:56:05.968Z,3590
2023-05-06T05:01:25.610Z,3920
2023-05-06T05:06:44.935Z,4290
2023-05-06T05:12:04.309Z,3970
2023-05-06T05:17:23.279Z,4424
2023-05-06T05:22:42.590Z,4705
2023-05-06T05:28:01.638Z,4356
2023-05-06T05:33:21.288Z,5513
2023-05-06T05:38:40.284Z,5603
2023-05-06T05:43:59.237Z,6189
2023-05-06T05:49:18.213Z,7024
2023-05-06T05:54:37.560Z,7141
2023-05-06T05:59:56.383Z,7227
2023-05-06T06:10:35.235Z,9291
2023-05-06T06:15:54.224Z,9638
2023-05-06T06:21:13.573Z,11489
2023-05-06T06:26:33.071Z,8328
2023-05-06T06:37:10.945Z,7489
2023-05-06T06:42:31.037Z,7224
2023-05-06T06:47:50.589Z,8852
2023-05-06T06:53:09.419Z,8380
2023-05-06T06:58:28.157Z,7056
2023-05-06T07:09:07.326Z,15909
2023-05-06T07:14:26.048Z,22769
2023-05-06T07:19:45.016Z,20103
2023-05-06T07:25:03.344Z,25117
2023-05-06T07:30:23.375Z,21967
2023-05-06T07:35:42.372Z,26535
2023-05-06T07:41:01.762Z,24689
2023-05-06T07:46:21.382Z,22408
2023-05-06T07:51:50.843Z,22752
2023-05-06T07:57:00.083Z,17708
2023-05-06T08:02:19.243Z,32150
2023-05-06T08:07:38.407Z,23745
2023-05-06T08:18:22.139Z,14378
2023-05-06T08:23:36.179Z,20646
2023-05-06T08:28:55.575Z,24406
2023-05-06T08:34:14.372Z,38381
2023-05-06T08:39:33.278Z,27119
2023-05-06T08:50:10.979Z,26929
2023-05-06T09:00:49.682Z,16648
2023-05-06T09:06:08.830Z,15524
2023-05-06T09:11:28.199Z,35355
2023-05-06T09:16:47.664Z,33926
2023-05-06T09:22:07.088Z,38738
2023-05-06T09:32:45.902Z,35280
2023-05-06T09:38:07.024Z,41325
2023-05-06T09:43:24.301Z,24510
2023-05-06T09:48:43.373Z,43474
2023-05-06T09:54:02.258Z,47777
2023-05-06T09:59:21.790Z,39740
2023-05-06T10:04:41.258Z,33004
2023-05-06T10:15:19.381Z,34464
2023-05-06T10:21:03.395Z,18036
2023-05-06T10:26:22.232Z,43800
2023-05-06T10:31:41.540Z,45281
2023-05-06T10:37:00.968Z,43174
2023-05-06T10:47:38.771Z,43309
2023-05-06T10:58:17.969Z,28699
2023-05-06T11:03:37.273Z,52152
2023-05-06T11:08:55.994Z,15271
2023-05-06T11:14:15.062Z,10783
2023-05-06T11:24:54.091Z,9690
2023-05-06T11:30:12.931Z,10826
2023-05-06T11:40:50.980Z,17139
2023-05-06T11:46:10.387Z,30966
2023-05-06T11:51:29.318Z,20395
2023-05-06T11:56:48.706Z,20081
2023-05-06T12:02:07.900Z,18468
2023-05-06T12:07:26.919Z,24295
2023-05-06T12:12:46.339Z,21591
2023-05-06T12:18:05.099Z,21720
2023-05-06T12:23:24.285Z,24223
2023-05-06T12:34:02.833Z,31649
2023-05-06T12:39:22.453Z,32841
2023-05-06T12:50:00.763Z,15236
2023-05-06T12:55:19.536Z,15751
2023-05-06T13:00:38.111Z,13373
2023-05-06T13:05:57.164Z,13418
2023-05-06T13:11:15.868Z,17561
2023-05-06T13:16:34.947Z,18420
2023-05-06T13:21:54.404Z,21321
2023-05-06T13:27:13.981Z,20147
2023-05-06T13:32:33.109Z,19440
2023-05-06T13:37:52.653Z,16961
2023-05-06T13:43:12.205Z,17145
2023-05-06T13:48:31.650Z,20797
2023-05-06T13:53:50.480Z,30638
2023-05-06T14:04:28.913Z,22291
2023-05-06T14:09:47.650Z,20328
2023-05-06T14:15:06.341Z,21710
2023-05-06T14:20:25.745Z,21736
2023-05-06T14:25:44.909Z,19724
2023-05-06T14:31:04.080Z,19752
2023-05-06T14:36:23.492Z,16802
2023-05-06T14:41:42.620Z,16007
2023-05-06T14:47:02.134Z,17016
2023-05-06T14:52:20.954Z,15604
2023-05-06T14:57:39.973Z,16218
2023-05-06T15:02:59.535Z,15679
2023-05-06T15:08:19.025Z,15572
2023-05-06T15:13:38.591Z,14593
2023-05-06T15:18:57.027Z,13729
2023-05-06T15:24:16.188Z,13429
2023-05-06T15:29:35.629Z,12908
2023-05-06T15:34:55.085Z,12105
2023-05-06T15:40:14.610Z,11786
2023-05-06T15:45:33.375Z,12304
2023-05-06T15:50:52.112Z,11510
2023-05-06T15:56:17.917Z,12265
2023-05-06T16:02:00.596Z,11630
2023-05-06T16:06:49.864Z,7953
2023-05-06T16:12:09.163Z,6000
2023-05-06T16:17:28.698Z,5423
2023-05-06T16:22:48.022Z,5134
2023-05-06T16:28:06.873Z,4920
2023-05-06T16:33:26.297Z,4454
2023-05-06T16:38:45.083Z,4164
2023-05-06T16:44:03.985Z,3939
2023-05-06T16:54:41.797Z,3734
2023-05-06T17:00:00.945Z,3411
2023-05-06T17:05:22.088Z,3294
2023-05-06T17:10:39.294Z,3179
2023-05-06T17:15:58.015Z,2921
2023-05-06T17:21:16.961Z,2776
2023-05-06T17:26:35.628Z,2583
2023-05-06T17:31:55.172Z,2460
2023-05-06T17:37:14.128Z,2226
2023-05-06T17:42:33.562Z,2022
2023-05-06T17:47:53.036Z,1894
2023-05-06T17:53:12.029Z,1908
2023-05-06T17:58:41.265Z,1649
2023-05-06T18:09:08.915Z,1119
2023-05-06T18:14:27.903Z,945
2023-05-06T18:19:46.622Z,760
2023-05-06T18:25:06.049Z,565
2023-05-06T18:30:25.056Z,422
2023-05-06T18:35:44.477Z,295
2023-05-06T18:46:23.146Z,113
2023-05-06T18:51:42.124Z,65
2023-05-06T18:57:00.943Z,36
2023-05-06T19:02:19.707Z,18
2023-05-06T19:07:38.619Z,7
2023-05-06T19:12:57.513Z,2
2023-05-06T19:18:17.031Z,0
2023-05-06T19:23:36.357Z,0
2023-05-06T19:28:55.548Z,0
2023-05-06T19:34:24.739Z,0
2023-05-06T19:39:34.195Z,0
2023-05-06T19:44:53.294Z,0
2023-05-06T19:50:13.288Z,0
2023-05-06T19:55:32.313Z,0
2023-05-06T20:00:51.627Z,0
2023-05-06T20:11:29.748Z,0
2023-05-06T20:16:49.160Z,0
2023-05-06T20:27:26.864Z,0
2023-05-06T20:38:05.201Z,0
2023-05-06T20:43:24.010Z,0
2023-05-06T20:48:43.653Z,0
2023-05-06T20:54:02.427Z,0
2023-05-06T20:59:21.277Z,0
2023-05-06T21:09:59.458Z,0
2023-05-06T21:15:18.206Z,0
2023-05-06T21:20:37.256Z,0
2023-05-06T21:25:56.765Z,0
2023-05-06T21:31:15.716Z,0
2023-05-06T21:36:35.401Z,0
2023-05-06T21:41:55.041Z,0
2023-05-06T21:47:14.071Z,0
2023-05-06T21:52:33.705Z,0
2023-05-06T21:57:52.665Z,0
2023-05-06T22:03:12.146Z,0
2023-05-06T22:08:31.347Z,0
2023-05-06T22:13:50.644Z,0
2023-05-06T22:19:10.274Z,0
2023-05-06T22:24:29.842Z,0
2023-05-06T22:29:49.181Z,0
2023-05-06T22:35:07.956Z,0
2023-05-06T22:40:27.232Z,0
2023-05-06T22:51:14.542Z,0
2023-05-06T22:56:24.532Z,0
2023-05-06T23:01:52.455Z,0
2023-05-06T23:07:02.509Z,0
2023-05-06T23:17:40.461Z,0
2023-05-06T23:22:59.457Z,0
2023-05-06T23:33:37.905Z,0
2023-05-06T23:38:57.052Z,0
2023-05-06T23:44:16.472Z,0
2023-05-06T23:49:36.152Z,0
2023-05-06T23:54:55.710Z,0
